Decoded Metar for LCLK (LARNACA in CYPRUS) (IATA:LCA) | Meteo·Mobile Aviation Weather
aviador You're here:

LCLK Decoded Metar

LARNACA in CYPRUS
Report Time2020-02-18 21:00:00
UTC Time2020-02-18 21:11:02
Flight Rules vfr VFR
Wind330° at 07 kt
W.Decomp.*RWY 04: 1.9 kt HW 6.7 kt LCW
Visibility9999 m
Phenomena:N/A
Clouds:Few 025 Hf
Scattered 060 Hf
Expected CloudBase > 1,200 ft AGL from Temp-Dew spread
CeilingNone
Temp13°C (ISA -2)
Dew Point10°C (82% RH)
AAT10.5°C
QNH1017 hPa
Density Alt-200 ft
Elevation7 ft
Report Wrong Elevation
Raw Report
METAR LCLK 182100Z 33007KT 9999 FEW025 SCT060 13/10 Q1017 NOSIG=

Extra information for LCLK:More info

Metar Taf Metar & Taf Last 4 Metars F.Rules Stats Wind Profile Meteogram Temp Stats Airport Information Weather charts Add Link Nearby VenuesMetar ALERT Operation Metar Decoded Social comments